Terminal Aerodrome Forecast
Issued by NWS Boston, MA

Home | Current Version | Previous Version | Text Only | Print | Product List | Glossary On
Versions: 1 2 3 4 5 6 7 8 9 10 11 12 13 14 15 16 17 18 19 20 21 22 23 24 25 26 27 28 29 30 31 32 33 34 35 36 37 38 39 40 41 42 43 44 45 46 47 48 49
000
FTUS41 KBOX 300830 AAA
TAFBOS
TAF AMD
KBOS 300830Z 3009/3112 22010KT P6SM SCT250
     FM301200 21010G21KT P6SM BKN110
     FM301700 21013G24KT P6SM OVC025
      TEMPO 3017/3020 4SM -SHRA OVC015
     FM302200 24010G18KT P6SM BKN040
     FM310300 25012KT P6SM SCT080=

USA.gov is the U.S. government's official web portal to all federal, state and local government web resources and services.